createdAt,value
2022-12-20T00:00:19.576Z,102773.44
2022-12-20T00:02:47.635Z,102767.72
2022-12-20T00:05:21.830Z,102774.16
2022-12-20T00:08:03.605Z,102773.53
2022-12-20T00:10:47.046Z,102774.31
2022-12-20T00:13:14.994Z,102771.19
2022-12-20T00:15:49.263Z,102770.97
2022-12-20T00:18:33.787Z,102766.00
2022-12-20T00:21:06.959Z,102762.56
2022-12-20T00:23:42.793Z,102764.50
2022-12-20T00:26:17.842Z,102766.56
2022-12-20T00:28:48.221Z,102772.34
2022-12-20T00:31:18.555Z,102762.66
2022-12-20T00:33:48.410Z,102752.34
2022-12-20T00:36:27.748Z,102758.81
2022-12-20T00:39:04.734Z,102753.69
2022-12-20T00:41:38.221Z,102741.66
2022-12-20T00:44:08.810Z,102729.16
2022-12-20T00:46:42.341Z,102736.47
2022-12-20T00:49:15.488Z,102735.41
2022-12-20T00:51:45.382Z,102733.78
2022-12-20T00:54:14.965Z,102731.66
2022-12-20T00:56:43.796Z,102734.22
2022-12-20T00:59:10.975Z,102737.50
2022-12-20T01:01:38.330Z,102738.28
2022-12-20T01:04:07.629Z,102730.38
2022-12-20T01:06:38.421Z,102724.81
2022-12-20T01:09:13.611Z,102729.16
2022-12-20T01:11:42.951Z,102720.00
2022-12-20T01:14:19.978Z,102717.03
2022-12-20T01:16:56.034Z,102710.97
2022-12-20T01:19:23.640Z,102711.94
2022-12-20T01:21:58.527Z,102707.72
2022-12-20T01:24:28.550Z,102704.47
2022-12-20T01:27:04.086Z,102703.09
2022-12-20T01:29:36.998Z,102697.78
2022-12-20T01:32:04.574Z,102693.06
2022-12-20T01:34:35.280Z,102689.81
2022-12-20T01:37:09.895Z,102698.97
2022-12-20T01:39:37.478Z,102704.47
2022-12-20T01:42:14.266Z,102686.66
2022-12-20T01:44:44.365Z,102689.22
2022-12-20T01:47:15.524Z,102693.41
2022-12-20T01:49:49.163Z,102682.69
2022-12-20T01:52:26.472Z,102683.72
2022-12-20T01:55:17.145Z,102673.94
2022-12-20T01:57:54.709Z,102670.72
2022-12-20T02:00:25.178Z,102666.31
2022-12-20T02:03:05.200Z,102662.22
2022-12-20T02:05:43.110Z,102666.81
2022-12-20T02:08:17.057Z,102663.47
2022-12-20T02:10:59.883Z,102655.88
2022-12-20T02:13:53.595Z,102655.66
2022-12-20T02:16:29.963Z,102657.88
2022-12-20T02:19:00.020Z,102657.53
2022-12-20T02:21:41.533Z,102657.50
2022-12-20T02:24:40.071Z,102668.22
2022-12-20T02:27:07.234Z,102660.84
2022-12-20T02:30:03.791Z,102658.66
2022-12-20T02:32:48.073Z,102650.97
2022-12-20T02:35:24.460Z,102652.63
2022-12-20T02:37:56.410Z,102641.47
2022-12-20T02:40:44.763Z,102635.59
2022-12-20T02:43:12.534Z,102641.28
2022-12-20T02:45:42.667Z,102642.13
2022-12-20T02:48:16.299Z,102632.03
2022-12-20T02:50:55.741Z,102632.78
2022-12-20T02:53:23.382Z,102618.31
2022-12-20T02:56:01.791Z,102621.75
2022-12-20T02:59:00.476Z,102617.03
2022-12-20T03:01:45.173Z,102623.34
2022-12-20T03:04:16.923Z,102624.56
2022-12-20T03:07:12.373Z,102616.28
2022-12-20T03:09:42.688Z,102609.41
2022-12-20T03:12:14.048Z,102605.75
2022-12-20T03:14:43.972Z,102604.38
2022-12-20T03:17:11.345Z,102618.84
2022-12-20T03:19:39.011Z,102603.84
2022-12-20T03:22:12.752Z,102608.53
2022-12-20T03:24:48.443Z,102594.41
2022-12-20T03:27:18.958Z,102599.78
2022-12-20T03:29:46.446Z,102599.22
2022-12-20T03:32:14.046Z,102597.59
2022-12-20T03:34:47.401Z,102588.94
2022-12-20T03:37:18.974Z,102586.69
2022-12-20T03:39:46.493Z,102591.28
2022-12-20T03:42:22.114Z,102584.88
2022-12-20T03:44:53.011Z,102586.28
2022-12-20T03:47:26.939Z,102572.63
2022-12-20T03:49:59.879Z,102573.63
2022-12-20T03:52:34.098Z,102570.06
2022-12-20T03:55:07.603Z,102568.75
2022-12-20T03:57:35.191Z,102568.22
2022-12-20T04:00:06.132Z,102565.69
2022-12-20T04:02:36.296Z,102565.00
2022-12-20T04:05:06.984Z,102566.41
2022-12-20T04:07:40.060Z,102572.91
2022-12-20T04:10:10.357Z,102564.91
2022-12-20T04:12:40.785Z,102553.72
2022-12-20T04:15:11.097Z,102556.63
2022-12-20T04:17:41.121Z,102566.28
2022-12-20T04:20:17.234Z,102569.69
2022-12-20T04:22:51.724Z,102565.88
2022-12-20T04:25:20.960Z,102564.75
2022-12-20T04:27:50.825Z,102567.56
2022-12-20T04:30:18.590Z,102566.56
2022-12-20T04:32:51.904Z,102564.38
2022-12-20T04:35:19.801Z,102560.13
2022-12-20T04:37:54.913Z,102554.38
2022-12-20T04:40:22.566Z,102553.63
2022-12-20T04:42:56.293Z,102550.91
2022-12-20T04:45:35.840Z,102554.06
2022-12-20T04:48:36.779Z,102562.22
2022-12-20T04:51:00.627Z,102561.41
2022-12-20T04:53:32.016Z,102551.81
2022-12-20T04:56:06.241Z,102552.19
2022-12-20T04:58:36.703Z,102560.94
2022-12-20T05:01:07.731Z,102552.47
2022-12-20T05:03:39.850Z,102552.84
2022-12-20T05:06:11.630Z,102549.88
2022-12-20T05:08:51.803Z,102547.41
2022-12-20T05:11:22.682Z,102546.84
2022-12-20T05:13:53.672Z,102543.94
2022-12-20T05:16:21.224Z,102543.03
2022-12-20T05:18:55.046Z,102540.41
2022-12-20T05:21:22.839Z,102534.97
2022-12-20T05:23:50.640Z,102533.75
2022-12-20T05:26:22.417Z,102531.50
2022-12-20T05:28:55.753Z,102520.47
2022-12-20T05:31:29.609Z,102518.97
2022-12-20T05:34:05.467Z,102536.56
2022-12-20T05:36:33.548Z,102530.41
2022-12-20T05:39:04.872Z,102537.84
2022-12-20T05:41:36.101Z,102532.84
2022-12-20T05:44:04.401Z,102533.81
2022-12-20T05:46:37.911Z,102524.94
2022-12-20T05:49:10.842Z,102529.97
2022-12-20T05:51:44.667Z,102543.00
2022-12-20T05:54:15.239Z,102529.44
2022-12-20T05:56:52.135Z,102532.16
2022-12-20T05:59:25.806Z,102526.13
2022-12-20T06:01:56.388Z,102523.66
2022-12-20T06:04:31.026Z,102529.84
2022-12-20T06:07:01.448Z,102525.38
2022-12-20T06:09:35.440Z,102519.16
2022-12-20T06:12:06.591Z,102520.06
2022-12-20T06:14:33.739Z,102526.53
2022-12-20T06:17:04.684Z,102515.81
2022-12-20T06:19:33.071Z,102513.06
2022-12-20T06:22:06.283Z,102518.88
2022-12-20T06:24:40.488Z,102516.97
2022-12-20T06:27:12.745Z,102518.25
2022-12-20T06:29:40.526Z,102526.00
2022-12-20T06:32:14.024Z,102511.94
2022-12-20T06:34:44.990Z,102512.13
2022-12-20T06:37:12.589Z,102513.97
2022-12-20T06:39:39.946Z,102518.06
2022-12-20T06:42:13.084Z,102519.81
2022-12-20T06:44:46.073Z,102517.03
2022-12-20T06:47:16.955Z,102522.16
2022-12-20T06:49:50.955Z,102526.06
2022-12-20T06:52:21.029Z,102521.38
2022-12-20T06:54:54.022Z,102525.00
2022-12-20T06:57:27.424Z,102525.53
2022-12-20T07:00:00.361Z,102529.34
2022-12-20T07:02:34.350Z,102520.19
2022-12-20T07:05:10.365Z,102520.22
2022-12-20T07:07:44.876Z,102526.84
2022-12-20T07:10:15.756Z,102524.69
2022-12-20T07:12:49.427Z,102519.75
2022-12-20T07:15:19.956Z,102522.34
2022-12-20T07:17:51.072Z,102520.53
2022-12-20T07:20:19.260Z,102515.28
2022-12-20T07:22:52.741Z,102518.19
2022-12-20T07:25:23.289Z,102520.00
2022-12-20T07:27:56.239Z,102510.53
2022-12-20T07:30:30.028Z,102513.38
2022-12-20T07:32:59.844Z,102510.81
2022-12-20T07:35:34.554Z,102505.28
2022-12-20T07:38:01.612Z,102499.50
2022-12-20T07:40:35.104Z,102503.31
2022-12-20T07:43:02.315Z,102499.88
2022-12-20T07:45:29.793Z,102496.75
2022-12-20T07:48:10.217Z,102501.69
2022-12-20T07:50:41.971Z,102509.03
2022-12-20T07:53:09.748Z,102513.03
2022-12-20T07:55:41.991Z,102506.66
2022-12-20T07:58:13.480Z,102507.38
2022-12-20T08:00:43.376Z,102514.44
2022-12-20T08:03:21.032Z,102508.97
2022-12-20T08:05:53.867Z,102508.56
2022-12-20T08:08:21.453Z,102507.84
2022-12-20T08:10:52.114Z,102506.66
2022-12-20T08:13:25.631Z,102505.75
2022-12-20T08:15:52.853Z,102505.28
2022-12-20T08:18:20.244Z,102502.88
2022-12-20T08:20:50.585Z,102499.31
2022-12-20T08:23:18.503Z,102506.78
2022-12-20T08:25:46.154Z,102495.47
2022-12-20T08:28:14.495Z,102498.34
2022-12-20T08:30:44.816Z,102486.91
2022-12-20T08:33:15.481Z,102485.53
2022-12-20T08:35:56.641Z,102484.59
2022-12-20T08:38:29.553Z,102486.28
2022-12-20T08:41:05.237Z,102475.47
2022-12-20T08:43:33.651Z,102471.78
2022-12-20T08:46:07.518Z,102472.78
2022-12-20T08:48:37.824Z,102468.25
2022-12-20T08:51:10.376Z,102467.63
2022-12-20T08:53:46.821Z,102470.97
2022-12-20T08:56:17.164Z,102464.78
2022-12-20T08:58:51.611Z,102456.22
2022-12-20T09:01:22.126Z,102454.97
2022-12-20T09:03:57.621Z,102449.03
2022-12-20T09:06:31.165Z,102445.94
2022-12-20T09:09:04.799Z,102447.91
2022-12-20T09:11:34.974Z,102443.53
2022-12-20T09:14:06.569Z,102435.78
2022-12-20T09:16:39.992Z,102438.16
2022-12-20T09:19:12.687Z,102438.66
2022-12-20T09:21:43.248Z,102429.03
2022-12-20T09:24:16.556Z,102417.66
2022-12-20T09:26:50.529Z,102409.16
2022-12-20T09:29:27.037Z,102412.31
2022-12-20T09:32:00.520Z,102404.59
2022-12-20T09:34:33.849Z,102399.91
2022-12-20T09:37:04.850Z,102404.88
2022-12-20T09:39:32.581Z,102403.59
2022-12-20T09:42:08.559Z,102390.41
2022-12-20T09:44:42.471Z,102382.16
2022-12-20T09:47:22.950Z,102386.50
2022-12-20T09:50:00.550Z,102384.72
2022-12-20T09:52:43.430Z,102381.06
2022-12-20T09:55:27.059Z,102390.19
2022-12-20T09:58:03.661Z,102391.41
2022-12-20T10:00:36.704Z,102381.03
2022-12-20T10:03:30.534Z,102376.66
2022-12-20T10:06:37.206Z,102371.75
2022-12-20T10:09:30.460Z,102364.94
2022-12-20T10:12:35.918Z,102361.53
2022-12-20T10:15:17.689Z,102356.97
2022-12-20T10:18:17.631Z,102366.50
2022-12-20T10:20:51.159Z,102353.56
2022-12-20T10:23:33.613Z,102343.88
2022-12-20T10:26:09.748Z,102331.91
2022-12-20T10:28:37.708Z,102333.66
2022-12-20T10:31:15.948Z,102335.59
2022-12-20T10:33:44.528Z,102323.34
2022-12-20T10:36:38.152Z,102320.34
2022-12-20T10:39:12.000Z,102309.84
2022-12-20T10:41:42.595Z,102305.19
2022-12-20T10:44:22.624Z,102307.19
2022-12-20T10:46:58.670Z,102303.72
2022-12-20T10:49:35.342Z,102299.19
2022-12-20T10:52:14.483Z,102292.31
2022-12-20T10:54:46.367Z,102276.34
2022-12-20T10:57:30.515Z,102276.28
2022-12-20T11:00:02.699Z,102276.91
2022-12-20T11:02:41.244Z,102272.69
2022-12-20T11:05:12.276Z,102260.75
2022-12-20T11:10:51.171Z,102264.56
2022-12-20T11:13:31.978Z,102258.38
2022-12-20T11:16:21.887Z,102251.19
2022-12-20T11:19:12.829Z,102254.88
2022-12-20T11:22:12.698Z,102238.75
2022-12-20T11:24:58.576Z,102232.50
2022-12-20T11:27:51.738Z,102228.22
2022-12-20T11:30:43.625Z,102220.41
2022-12-20T11:33:32.014Z,102211.31
2022-12-20T11:36:03.229Z,102210.25
2022-12-20T11:39:38.664Z,102200.88
2022-12-20T11:42:30.880Z,102198.13
2022-12-20T11:45:11.752Z,102194.53
2022-12-20T11:48:07.543Z,102195.16
2022-12-20T11:50:58.637Z,102190.41
2022-12-20T11:53:47.456Z,102188.34
2022-12-20T11:56:47.314Z,102179.47
2022-12-20T11:59:24.748Z,102182.97
2022-12-20T12:02:10.426Z,102175.44
2022-12-20T12:04:47.918Z,102177.72
2022-12-20T12:07:31.233Z,102171.22
2022-12-20T12:10:27.303Z,102167.50
2022-12-20T12:13:26.361Z,102146.38
2022-12-20T12:16:13.197Z,102158.50
2022-12-20T12:18:43.908Z,102140.91
2022-12-20T12:21:32.556Z,102138.00
2022-12-20T12:24:20.733Z,102142.84
2022-12-20T12:26:49.493Z,102147.81
2022-12-20T12:29:21.909Z,102150.84
2022-12-20T12:32:14.413Z,102153.34
2022-12-20T12:35:11.934Z,102150.06
2022-12-20T12:38:00.192Z,102136.63
2022-12-20T12:41:04.755Z,102127.22
2022-12-20T12:43:54.518Z,102119.97
2022-12-20T12:46:30.355Z,102113.16
2022-12-20T12:49:04.922Z,102115.03
2022-12-20T12:51:41.734Z,102115.38
2022-12-20T12:54:09.887Z,102119.47
2022-12-20T12:56:47.316Z,102111.72
2022-12-20T12:59:25.541Z,102109.63
2022-12-20T13:02:15.812Z,102110.63
2022-12-20T13:05:07.461Z,102115.25
2022-12-20T13:07:47.731Z,102114.50
2022-12-20T13:10:18.945Z,102108.06
2022-12-20T13:12:52.191Z,102104.59
2022-12-20T13:15:20.086Z,102109.97
2022-12-20T13:18:01.161Z,102111.00
2022-12-20T13:20:36.726Z,102104.50
2022-12-20T13:23:09.859Z,102096.91
2022-12-20T13:25:48.851Z,102092.59
2022-12-20T13:28:26.126Z,102091.31
2022-12-20T13:31:02.274Z,102090.63
2022-12-20T13:33:44.536Z,102077.31
2022-12-20T13:36:12.493Z,102082.00
2022-12-20T13:38:45.998Z,102075.31
2022-12-20T13:41:38.075Z,102075.69
2022-12-20T13:44:16.651Z,102074.50
2022-12-20T13:47:03.002Z,102061.06
2022-12-20T13:49:37.978Z,102068.03
2022-12-20T13:52:11.794Z,102073.25
2022-12-20T13:54:45.682Z,102069.28
2022-12-20T13:57:17.333Z,102075.53
2022-12-20T13:59:49.512Z,102067.09
2022-12-20T14:02:28.720Z,102061.72
2022-12-20T14:05:01.923Z,102060.03
2022-12-20T14:07:31.952Z,102066.13
2022-12-20T14:10:16.190Z,102064.91
2022-12-20T14:12:51.796Z,102062.25
2022-12-20T14:15:23.594Z,102060.59
2022-12-20T14:17:57.549Z,102054.09
2022-12-20T14:20:37.421Z,102063.84
2022-12-20T14:23:16.502Z,102059.59
2022-12-20T14:26:00.188Z,102059.34
2022-12-20T14:28:40.697Z,102060.91
2022-12-20T14:31:32.052Z,102058.66
2022-12-20T14:34:07.530Z,102056.84
2022-12-20T14:36:42.182Z,102051.53
2022-12-20T14:39:33.187Z,102050.66
2022-12-20T14:42:09.480Z,102043.41
2022-12-20T14:44:42.467Z,102036.94
2022-12-20T14:47:29.294Z,102037.41
2022-12-20T14:50:01.982Z,102035.09
2022-12-20T14:52:37.069Z,102036.13
2022-12-20T14:55:27.661Z,102027.22
2022-12-20T14:57:58.567Z,102029.88
2022-12-20T15:00:31.815Z,102026.13
2022-12-20T15:03:17.273Z,102020.19
2022-12-20T15:05:50.819Z,102015.56
2022-12-20T15:08:24.718Z,102010.41
2022-12-20T15:11:01.274Z,102004.09
2022-12-20T15:13:47.247Z,101999.47
2022-12-20T15:16:22.996Z,102002.78
2022-12-20T15:19:01.940Z,101992.56
2022-12-20T15:21:38.483Z,101986.50
2022-12-20T15:24:11.796Z,101979.16
2022-12-20T15:26:40.246Z,101971.78
2022-12-20T15:29:25.617Z,101971.41
2022-12-20T15:32:14.544Z,101973.31
2022-12-20T15:34:53.418Z,101961.06
2022-12-20T15:37:23.001Z,101955.91
2022-12-20T15:39:50.651Z,101955.78
2022-12-20T15:42:20.581Z,101956.44
2022-12-20T15:44:57.710Z,101963.91
2022-12-20T15:47:28.482Z,101952.75
2022-12-20T15:50:04.001Z,101952.94
2022-12-20T15:52:36.019Z,101943.47
2022-12-20T15:55:03.742Z,101949.56
2022-12-20T15:57:34.764Z,101944.38
2022-12-20T16:00:04.353Z,101944.53
2022-12-20T16:02:33.203Z,101941.09
2022-12-20T16:05:05.808Z,101939.88
2022-12-20T16:07:38.994Z,101942.88
2022-12-20T16:10:12.826Z,101942.81
2022-12-20T16:12:40.239Z,101938.91
2022-12-20T16:15:21.381Z,101947.97
2022-12-20T16:17:52.138Z,101944.56
2022-12-20T16:20:19.842Z,101945.19
2022-12-20T16:22:50.836Z,101948.78
2022-12-20T16:25:28.365Z,101951.63
2022-12-20T16:27:56.981Z,101950.78
2022-12-20T16:30:29.420Z,101952.41
2022-12-20T16:33:02.214Z,101950.03
2022-12-20T16:35:38.288Z,101947.16
2022-12-20T16:38:11.663Z,101945.91
2022-12-20T16:40:42.578Z,101941.06
2022-12-20T16:43:16.861Z,101934.78
2022-12-20T16:45:51.230Z,101928.78
2022-12-20T16:48:21.400Z,101935.25
2022-12-20T16:50:52.078Z,101927.25
2022-12-20T16:53:22.408Z,101937.91
2022-12-20T16:55:55.830Z,101929.88
2022-12-20T16:58:59.968Z,101930.09
2022-12-20T17:01:35.766Z,101926.22
2022-12-20T17:04:12.392Z,101928.28
2022-12-20T17:06:46.174Z,101937.09
2022-12-20T17:09:14.555Z,101939.69
2022-12-20T17:11:49.487Z,101937.25
2022-12-20T17:14:18.388Z,101941.00
2022-12-20T17:16:53.223Z,101933.69
2022-12-20T17:19:24.796Z,101941.34
2022-12-20T17:24:41.918Z,101938.66
2022-12-20T17:27:12.837Z,101942.34
2022-12-20T17:29:45.593Z,101929.66
2022-12-20T17:32:27.469Z,101928.81
2022-12-20T17:35:01.268Z,101930.97
2022-12-20T17:37:28.580Z,101934.03
2022-12-20T17:40:01.626Z,101934.22
2022-12-20T17:42:32.324Z,101921.97
2022-12-20T17:45:03.586Z,101917.16
2022-12-20T17:47:34.263Z,101915.09
2022-12-20T17:50:05.568Z,101908.56
2022-12-20T17:52:32.890Z,101901.28
2022-12-20T17:55:03.413Z,101894.38
2022-12-20T17:57:36.569Z,101893.75
2022-12-20T18:00:15.988Z,101893.59
2022-12-20T18:02:44.318Z,101878.91
2022-12-20T18:05:18.114Z,101872.75
2022-12-20T18:07:53.728Z,101865.97
2022-12-20T18:10:24.351Z,101867.91
2022-12-20T18:12:57.443Z,101872.63
2022-12-20T18:15:27.736Z,101869.66
2022-12-20T18:18:01.516Z,101861.13
2022-12-20T18:20:36.463Z,101859.16
2022-12-20T18:23:03.971Z,101853.03
2022-12-20T18:25:31.788Z,101846.44
2022-12-20T18:28:03.266Z,101853.63
2022-12-20T18:30:39.277Z,101855.19
2022-12-20T18:33:09.396Z,101851.06
2022-12-20T18:35:41.815Z,101837.72
2022-12-20T18:38:12.589Z,101835.94
2022-12-20T18:40:50.521Z,101833.97
2022-12-20T18:43:24.000Z,101827.72
2022-12-20T18:45:55.065Z,101829.50
2022-12-20T18:48:25.013Z,101826.69
2022-12-20T18:51:03.016Z,101828.38
2022-12-20T18:53:35.610Z,101826.00
2022-12-20T18:56:11.113Z,101830.16
2022-12-20T18:58:46.403Z,101826.88
2022-12-20T19:01:26.376Z,101825.88
2022-12-20T19:04:02.446Z,101821.09
2022-12-20T19:06:30.879Z,101822.69
2022-12-20T19:09:05.995Z,101824.41
2022-12-20T19:11:37.533Z,101822.28
2022-12-20T19:14:12.144Z,101818.22
2022-12-20T19:16:46.067Z,101815.69
2022-12-20T19:19:20.138Z,101816.97
2022-12-20T19:21:51.288Z,101810.56
2022-12-20T19:24:22.488Z,101806.03
2022-12-20T19:27:07.017Z,101806.00
2022-12-20T19:29:43.648Z,101809.63
2022-12-20T19:32:23.634Z,101815.22
2022-12-20T19:34:54.094Z,101805.84
2022-12-20T19:37:22.323Z,101801.91
2022-12-20T19:39:56.275Z,101791.66
2022-12-20T19:42:33.017Z,101793.84
2022-12-20T19:45:06.410Z,101790.00
2022-12-20T19:47:43.078Z,101792.22
2022-12-20T19:50:19.842Z,101785.63
2022-12-20T19:52:51.327Z,101784.81
2022-12-20T19:55:24.792Z,101786.59
2022-12-20T19:57:58.137Z,101779.69
2022-12-20T20:00:26.598Z,101774.63
2022-12-20T20:03:00.899Z,101775.91
2022-12-20T20:05:29.191Z,101774.22
2022-12-20T20:07:57.390Z,101776.94
2022-12-20T20:10:30.033Z,101774.38
2022-12-20T20:13:01.209Z,101768.41
2022-12-20T20:15:33.221Z,101768.66
2022-12-20T20:18:03.361Z,101761.47
2022-12-20T20:20:35.267Z,101767.03
2022-12-20T20:23:05.680Z,101778.47
2022-12-20T20:25:36.338Z,101771.50
2022-12-20T20:28:12.771Z,101761.59
2022-12-20T20:30:44.151Z,101761.47
2022-12-20T20:33:15.683Z,101761.78
2022-12-20T20:35:54.529Z,101767.28
2022-12-20T20:38:22.570Z,101757.06
2022-12-20T20:40:50.050Z,101758.50
2022-12-20T20:43:20.382Z,101760.28
2022-12-20T20:46:01.871Z,101760.69
2022-12-20T20:48:35.545Z,101749.88
2022-12-20T20:51:12.880Z,101749.53
2022-12-20T20:53:40.295Z,101753.47
2022-12-20T20:56:09.160Z,101753.75
2022-12-20T20:58:39.543Z,101756.53
2022-12-20T21:01:13.729Z,101752.50
2022-12-20T21:03:45.224Z,101754.50
2022-12-20T21:06:39.132Z,101759.63
2022-12-20T21:09:16.700Z,101755.72
2022-12-20T21:11:57.253Z,101752.19
2022-12-20T21:15:10.582Z,101745.47
2022-12-20T21:17:22.010Z,101750.13
2022-12-20T21:19:52.619Z,101735.22
2022-12-20T21:22:22.933Z,101722.94
2022-12-20T21:24:52.672Z,101720.34
2022-12-20T21:27:23.561Z,101718.50
2022-12-20T21:29:53.911Z,101710.19
2022-12-20T21:32:29.623Z,101708.00
2022-12-20T21:34:59.231Z,101692.78
2022-12-20T21:37:32.111Z,101694.06
2022-12-20T21:40:02.436Z,101690.50
2022-12-20T21:42:35.062Z,101677.97
2022-12-20T21:45:02.738Z,101688.41
2022-12-20T21:47:39.505Z,101682.63
2022-12-20T21:50:10.797Z,101689.06
2022-12-20T21:52:44.720Z,101670.44
2022-12-20T21:55:15.580Z,101670.25
2022-12-20T21:57:45.980Z,101665.06
2022-12-20T22:00:25.354Z,101661.41
2022-12-20T22:02:59.353Z,101665.00
2022-12-20T22:05:30.124Z,101661.22
2022-12-20T22:08:00.986Z,101660.22
2022-12-20T22:10:28.291Z,101655.34
2022-12-20T22:13:01.093Z,101653.88
2022-12-20T22:15:28.356Z,101642.59
2022-12-20T22:18:05.120Z,101633.41
2022-12-20T22:20:37.720Z,101637.69
2022-12-20T22:23:05.063Z,101632.13
2022-12-20T22:25:36.757Z,101627.19
2022-12-20T22:28:06.668Z,101630.81
2022-12-20T22:30:43.010Z,101624.56
2022-12-20T22:33:13.727Z,101620.69
2022-12-20T22:35:44.786Z,101622.59
2022-12-20T22:38:17.673Z,101607.00
2022-12-20T22:40:48.075Z,101605.81
2022-12-20T22:43:22.491Z,101599.59
2022-12-20T22:46:01.530Z,101597.38
2022-12-20T22:48:29.117Z,101603.00
2022-12-20T22:51:14.370Z,101602.91
2022-12-20T22:53:47.298Z,101598.34
2022-12-20T22:56:16.200Z,101598.31
2022-12-20T22:58:46.608Z,101593.38
2022-12-20T23:01:21.003Z,101591.25
2022-12-20T23:03:48.669Z,101583.25
2022-12-20T23:06:21.525Z,101588.19
2022-12-20T23:08:49.444Z,101579.97
2022-12-20T23:11:25.245Z,101569.16
2022-12-20T23:13:56.170Z,101567.97
2022-12-20T23:16:26.566Z,101563.72
2022-12-20T23:18:59.232Z,101561.88
2022-12-20T23:21:34.653Z,101555.00
2022-12-20T23:24:07.023Z,101548.16
2022-12-20T23:26:38.891Z,101557.66
2022-12-20T23:29:11.192Z,101557.19
2022-12-20T23:31:44.487Z,101556.00
2022-12-20T23:34:14.936Z,101555.03
2022-12-20T23:36:50.855Z,101547.97
2022-12-20T23:39:26.372Z,101540.56
2022-12-20T23:41:59.610Z,101545.16
2022-12-20T23:44:32.145Z,101527.16
2022-12-20T23:47:05.713Z,101533.38
2022-12-20T23:49:41.733Z,101536.31
2022-12-20T23:52:12.434Z,101535.00
2022-12-20T23:54:42.532Z,101537.47
2022-12-20T23:57:15.355Z,101532.25
2022-12-20T23:59:45.602Z,101540.63
